Time;durP1;ratioP1;P1;durP2;ratioP2;P2;SDS_P1;SDS_P2;PMS_P1;PMS_P2;Temp;Humidity;BMP_temperature;BMP_pressure;BME280_temperature;BME280_humidity;BME280_pressure;Samples;Min_cycle;Max_cycle;Signal;HPM_P1;HPM_P2
2024/02/23 00:02:14;;;;;;;;;;;;;;;6.32;100.00;97557.66;5024130;28;19927;-90
2024/02/23 00:04:40;;;;;;;;;;;;;;;6.53;100.00;97623.06;5023410;28;19955;-89
2024/02/23 00:07:05;;;;;;;;;;;;;;;6.58;100.00;97636.78;5007157;28;20006;-90
2024/02/23 00:09:34;;;;;;;;;;;;;;;6.43;100.00;97624.53;5002593;28;19928;-94
2024/02/23 00:11:59;;;;;;;;;;;;;;;6.35;100.00;97636.38;5021413;28;19921;-87
2024/02/23 00:14:24;;;;;;;;;;;;;;;6.43;100.00;97625.41;5022722;28;20271;-83
2024/02/23 00:16:56;;;;;;;;;;;;;;;6.31;100.00;97632.25;5023379;28;19932;-88
2024/02/23 00:19:22;;;;;;;;;;;;;;;6.38;100.00;97631.88;5004469;28;20408;-90
2024/02/23 00:21:49;;;;;;;;;;;;;;;6.25;100.00;97622.06;5005298;28;20372;-91
2024/02/23 00:24:16;;;;;;;;;;;;;;;6.18;100.00;97623.41;5020666;28;19921;-88
2024/02/23 00:26:41;;;;;;;;;;;;;;;6.19;100.00;97617.22;5024114;28;19925;-85
2024/02/23 00:29:06;;;;;;;;;;;;;;;6.23;100.00;97617.88;5012551;28;20020;-86
2024/02/23 00:31:32;;;;;;;;;;;;;;;6.25;100.00;97614.19;5021989;28;19921;-88
2024/02/23 00:33:57;;;;;;;;;;;;;;;6.28;100.00;97621.91;5023868;28;19925;-87
2024/02/23 00:36:23;;;;;;;;;;;;;;;6.33;100.00;97619.00;5020036;28;20365;-89
2024/02/23 00:38:48;;;;;;;;;;;;;;;6.25;100.00;97623.88;4995385;28;19922;-89
2024/02/23 00:41:13;;;;;;;;;;;;;;;6.22;100.00;97624.88;4995353;28;20361;-90
2024/02/23 00:43:39;;;;;;;;;;;;;;;6.18;100.00;97634.75;5013092;28;19971;-89
2024/02/23 00:46:04;;;;;;;;;;;;;;;6.20;100.00;97639.09;5011545;28;19918;-88
2024/02/23 00:48:30;;;;;;;;;;;;;;;6.18;100.00;97642.66;5012963;28;19921;-87
2024/02/23 00:50:55;;;;;;;;;;;;;;;6.21;100.00;97641.63;5012530;28;19917;-88
2024/02/23 00:53:21;;;;;;;;;;;;;;;6.15;100.00;97641.97;4993646;28;19972;-91
2024/02/23 06:13:49;;;;;;;;;;;;;;;5.55;100.00;97624.38;5011778;28;19976;-88
2024/02/23 06:16:15;;;;;;;;;;;;;;;5.53;100.00;97627.09;5011938;28;19921;-90
2024/02/23 06:18:41;;;;;;;;;;;;;;;5.54;100.00;97627.97;5010751;28;19924;-89
2024/02/23 06:21:15;;;;;;;;;;;;;;;5.53;100.00;97634.13;5011460;28;19926;-89
2024/02/23 06:23:41;;;;;;;;;;;;;;;5.52;100.00;97637.69;5014093;28;19928;-88
2024/02/23 06:26:07;;;;;;;;;;;;;;;5.50;100.00;97636.94;5014736;28;19918;-89
2024/02/23 06:28:33;;;;;;;;;;;;;;;5.50;100.00;97639.56;5015512;28;20284;-90
2024/02/23 06:30:58;;;;;;;;;;;;;;;5.54;100.00;97639.31;5015627;28;20420;-89
2024/02/23 06:33:23;;;;;;;;;;;;;;;5.49;100.00;97632.59;5015514;28;19921;-89
2024/02/23 06:35:48;;;;;;;;;;;;;;;5.42;100.00;97629.47;5015523;28;19917;-89
2024/02/23 06:38:14;;;;;;;;;;;;;;;5.50;100.00;97622.00;5015561;28;19921;-90
2024/02/23 06:40:41;;;;;;;;;;;;;;;5.48;100.00;97631.75;5012721;28;20364;-88
2024/02/23 06:43:06;;;;;;;;;;;;;;;5.48;100.00;97631.75;5014237;28;19928;-89
2024/02/23 06:45:37;;;;;;;;;;;;;;;5.39;100.00;97630.50;5015477;28;19917;-89
2024/02/23 06:48:03;;;;;;;;;;;;;;;5.45;100.00;97631.94;5015371;28;19922;-91
2024/02/23 06:50:37;;;;;;;;;;;;;;;5.50;100.00;97636.94;5013981;28;20012;-91
2024/02/23 06:53:06;;;;;;;;;;;;;;;5.50;100.00;97640.41;5015463;28;20032;-92
2024/02/23 06:55:34;;;;;;;;;;;;;;;5.50;100.00;97645.66;5013912;28;19918;-91
2024/02/23 06:58:04;;;;;;;;;;;;;;;5.44;100.00;97641.59;5013873;28;19968;-90
2024/02/23 07:00:29;;;;;;;;;;;;;;;5.48;100.00;97644.06;5013223;28;19968;-88
2024/02/23 07:02:55;;;;;;;;;;;;;;;5.41;100.00;97639.16;5015059;28;20335;-89
2024/02/23 07:05:20;;;;;;;;;;;;;;;5.43;100.00;97657.44;5014824;28;20008;-88
2024/02/23 07:07:46;;;;;;;;;;;;;;;5.48;100.00;97639.66;5014970;28;19918;-90
2024/02/23 07:10:12;;;;;;;;;;;;;;;5.46;100.00;97641.53;5012576;28;20012;-91
2024/02/23 07:12:37;;;;;;;;;;;;;;;5.43;100.00;97645.16;5015476;28;20426;-89
2024/02/23 07:15:02;;;;;;;;;;;;;;;5.40;100.00;97641.84;5013628;28;19931;-90
2024/02/23 07:17:30;;;;;;;;;;;;;;;5.51;100.00;97643.88;5013487;28;19925;-90
2024/02/23 07:20:04;;;;;;;;;;;;;;;5.45;100.00;97650.31;5013534;28;19918;-89
2024/02/23 07:22:29;;;;;;;;;;;;;;;5.43;100.00;97660.06;5013759;28;20347;-89
2024/02/23 07:24:55;;;;;;;;;;;;;;;5.42;100.00;97661.84;5013224;28;20017;-90
2024/02/23 07:27:20;;;;;;;;;;;;;;;5.45;100.00;97663.44;5014519;28;19917;-89
2024/02/23 07:29:45;;;;;;;;;;;;;;;5.49;100.00;97667.63;5014500;28;20288;-89
2024/02/23 07:32:10;;;;;;;;;;;;;;;5.50;100.00;97674.53;5012830;28;20024;-89
2024/02/23 07:34:36;;;;;;;;;;;;;;;5.54;100.00;97664.75;5014283;28;19917;-89
2024/02/23 07:37:01;;;;;;;;;;;;;;;5.54;100.00;97670.81;5013053;28;19921;-89
2024/02/23 07:39:29;;;;;;;;;;;;;;;5.58;100.00;97674.13;5011596;28;20008;-89
2024/02/23 07:41:54;;;;;;;;;;;;;;;5.50;100.00;97671.91;5014113;28;19917;-90
2024/02/23 07:44:25;;;;;;;;;;;;;;;5.49;100.00;97670.25;5014347;28;19921;-88
2024/02/23 07:46:52;;;;;;;;;;;;;;;5.53;100.00;97669.13;5013565;28;19975;-90
2024/02/23 07:49:19;;;;;;;;;;;;;;;5.53;100.00;97668.28;5014132;28;19918;-89
2024/02/23 07:51:44;;;;;;;;;;;;;;;5.57;100.00;97675.91;5012853;28;19921;-92
2024/02/23 07:54:22;;;;;;;;;;;;;;;;;;;;;
2024/02/23 07:56:58;;;;;;;;;;;;;;;;;;;;;
2024/02/23 07:59:26;;;;;;;;;;;;;;;5.56;100.00;97678.63;5013465;28;20115;-92
2024/02/23 08:01:57;;;;;;;;;;;;;;;5.56;100.00;97679.47;5012082;28;19922;-92
2024/02/23 08:04:22;;;;;;;;;;;;;;;5.57;100.00;97677.69;5012779;28;20427;-91
2024/02/23 08:06:51;;;;;;;;;;;;;;;5.61;100.00;97677.41;5013946;28;19917;-92
2024/02/23 08:09:21;;;;;;;;;;;;;;;5.74;100.00;97684.63;5012544;28;19918;-91
2024/02/23 08:11:51;;;;;;;;;;;;;;;5.58;100.00;97677.59;5012089;28;19941;-91
2024/02/23 08:14:16;;;;;;;;;;;;;;;5.57;100.00;97683.78;5013471;28;19921;-86
2024/02/23 08:45:39;;;;;;;;;;;;;;;5.60;100.00;97701.16;4958072;28;19973;-89
2024/02/23 08:48:04;;;;;;;;;;;;;;;5.66;100.00;97703.44;4974209;28;19926;-89
2024/02/23 08:50:30;;;;;;;;;;;;;;;5.62;100.00;97694.88;4972895;28;20356;-89
2024/02/23 08:52:55;;;;;;;;;;;;;;;5.58;100.00;97693.34;4973098;28;20012;-93
2024/02/23 08:55:21;;;;;;;;;;;;;;;5.55;100.00;97696.19;4974077;28;19976;-89
2024/02/23 08:57:46;;;;;;;;;;;;;;;5.60;100.00;97694.13;4972964;28;19918;-89
2024/02/23 09:00:12;;;;;;;;;;;;;;;5.56;100.00;97697.84;4973874;28;20415;-94
2024/02/23 09:02:38;;;;;;;;;;;;;;;5.65;100.00;97693.88;4973156;28;20399;-89
2024/02/23 09:05:03;;;;;;;;;;;;;;;5.54;100.00;97697.09;4973880;28;20012;-86
2024/02/23 09:07:29;;;;;;;;;;;;;;;5.59;100.00;97697.69;4973798;28;19929;-87
2024/02/23 09:09:54;;;;;;;;;;;;;;;5.53;100.00;97700.66;4973002;28;19918;-87
2024/02/23 09:12:20;;;;;;;;;;;;;;;5.56;100.00;97703.09;4972258;28;19933;-87
2024/02/23 09:14:45;;;;;;;;;;;;;;;5.54;100.00;97701.50;4972511;28;19925;-93
2024/02/23 09:17:12;;;;;;;;;;;;;;;5.64;100.00;97692.16;4972531;28;19922;-89
2024/02/23 09:19:37;;;;;;;;;;;;;;;5.62;100.00;97697.50;4973756;28;20012;-89
2024/02/23 09:22:03;;;;;;;;;;;;;;;5.59;100.00;97700.31;4973637;28;20460;-91
2024/02/23 09:24:28;;;;;;;;;;;;;;;5.67;100.00;97707.78;4973496;28;20313;-89
2024/02/23 09:26:53;;;;;;;;;;;;;;;5.60;100.00;97707.28;4973387;28;20369;-89
2024/02/23 09:29:19;;;;;;;;;;;;;;;5.62;100.00;97709.81;4972337;28;20365;-87
2024/02/23 09:31:44;;;;;;;;;;;;;;;5.67;100.00;97718.28;4972290;28;19918;-88
2024/02/23 09:34:10;;;;;;;;;;;;;;;5.65;100.00;97712.28;4972259;28;19922;-88
2024/02/23 09:36:38;;;;;;;;;;;;;;;5.58;100.00;97705.66;4972241;28;19997;-91
2024/02/23 09:39:04;;;;;;;;;;;;;;;5.62;100.00;97700.13;4973273;28;19951;-88
2024/02/23 09:41:29;;;;;;;;;;;;;;;5.62;100.00;97702.75;4972050;28;20014;-89
2024/02/23 09:43:56;;;;;;;;;;;;;;;5.64;100.00;97698.25;4972083;28;20348;-85
2024/02/23 09:46:22;;;;;;;;;;;;;;;5.66;100.00;97698.19;4973070;28;20297;-85
2024/02/23 09:48:48;;;;;;;;;;;;;;;5.59;100.00;97699.47;4971990;28;19918;-87
2024/02/23 09:51:14;;;;;;;;;;;;;;;5.63;100.00;97703.59;4987780;28;19918;-91
2024/02/23 09:53:41;;;;;;;;;;;;;;;5.61;100.00;97693.19;4973521;28;19922;-86
2024/02/23 09:56:08;;;;;;;;;;;;;;;5.61;100.00;97698.44;4976431;28;19968;-89
2024/02/23 09:58:34;;;;;;;;;;;;;;;5.66;100.00;97695.56;4976790;28;19918;-92
2024/02/23 10:01:01;;;;;;;;;;;;;;;5.66;100.00;97699.97;4977495;28;19918;-89
2024/02/23 10:03:28;;;;;;;;;;;;;;;5.67;100.00;97699.06;4977587;28;19976;-91
2024/02/23 10:05:54;;;;;;;;;;;;;;;5.69;100.00;97697.16;4977036;28;20411;-87
2024/02/23 10:08:19;;;;;;;;;;;;;;;5.64;100.00;97690.38;4977588;28;19950;-90
2024/02/23 10:10:45;;;;;;;;;;;;;;;5.70;100.00;97686.56;4976909;28;19925;-89
2024/02/23 10:13:11;;;;;;;;;;;;;;;5.72;100.00;97684.69;4975916;28;19927;-86
2024/02/23 10:15:36;;;;;;;;;;;;;;;5.72;100.00;97679.44;4977466;28;19926;-92
2024/02/23 10:18:01;;;;;;;;;;;;;;;5.75;100.00;97678.44;4977369;28;20350;-87
2024/02/23 10:20:27;;;;;;;;;;;;;;;5.71;100.00;97682.16;4976733;28;20555;-92
2024/02/23 10:22:53;;;;;;;;;;;;;;;5.72;100.00;97679.44;4977054;28;19922;-89
2024/02/23 10:25:19;;;;;;;;;;;;;;;5.67;100.00;97676.25;4975790;28;20008;-93
2024/02/23 10:27:44;;;;;;;;;;;;;;;5.71;100.00;97676.91;4974290;28;20049;-90
2024/02/23 10:30:11;;;;;;;;;;;;;;;5.66;100.00;97677.16;4977154;28;19918;-88
2024/02/23 10:32:38;;;;;;;;;;;;;;;5.69;100.00;97684.88;4975462;28;19929;-88
2024/02/23 10:35:08;;;;;;;;;;;;;;;5.70;100.00;97685.75;4976505;28;19922;-85
2024/02/23 10:37:34;;;;;;;;;;;;;;;5.77;100.00;97695.78;4975904;28;20028;-88
2024/02/23 10:40:00;;;;;;;;;;;;;;;5.73;100.00;97698.72;4976265;28;20406;-91
2024/02/23 10:42:28;;;;;;;;;;;;;;;5.70;100.00;97698.88;4975089;28;20035;-88
2024/02/23 10:44:55;;;;;;;;;;;;;;;5.74;100.00;97703.84;4975711;28;19929;-88
2024/02/23 10:47:23;;;;;;;;;;;;;;;5.71;100.00;97706.69;4976163;28;19941;-89
2024/02/23 10:49:49;;;;;;;;;;;;;;;5.74;100.00;97708.25;4976338;28;20369;-87
2024/02/23 10:52:15;;;;;;;;;;;;;;;5.66;100.00;97706.06;4976015;28;19922;-87
2024/02/23 10:54:40;;;;;;;;;;;;;;;5.71;100.00;97711.94;4976683;28;19973;-88
2024/02/23 10:57:06;;;;;;;;;;;;;;;5.72;100.00;97710.13;4975912;28;19918;-91
2024/02/23 10:59:31;;;;;;;;;;;;;;;5.74;100.00;97711.72;4974844;28;19922;-86
2024/02/23 11:01:59;;;;;;;;;;;;;;;5.73;100.00;97702.19;4976248;28;20328;-87
2024/02/23 11:04:25;;;;;;;;;;;;;;;5.66;100.00;97698.19;4975372;28;20047;-86
2024/02/23 11:06:51;;;;;;;;;;;;;;;5.70;100.00;97685.75;4974922;28;19925;-86
2024/02/23 11:09:16;;;;;;;;;;;;;;;5.70;100.00;97688.38;4975929;28;19922;-90
2024/02/23 11:11:51;;;;;;;;;;;;;;;5.68;100.00;97684.97;4975706;28;20444;-87
2024/02/23 11:14:17;;;;;;;;;;;;;;;5.66;100.00;97673.69;4974372;28;19918;-89
2024/02/23 11:16:42;;;;;;;;;;;;;;;5.62;100.00;97679.13;4975803;28;19925;-90
2024/02/23 11:19:09;;;;;;;;;;;;;;;5.70;100.00;97681.31;4976092;28;20009;-90
2024/02/23 11:21:40;;;;;;;;;;;;;;;5.69;100.00;97668.28;4975460;28;19965;-91
2024/02/23 11:24:06;;;;;;;;;;;;;;;5.74;100.00;97682.81;4974485;28;19918;-85
2024/02/23 11:26:33;;;;;;;;;;;;;;;5.73;100.00;97672.44;4976057;28;19973;-94
2024/02/23 11:28:59;;;;;;;;;;;;;;;5.71;100.00;97672.50;4974482;28;19984;-88
2024/02/23 11:31:25;;;;;;;;;;;;;;;5.75;100.00;97666.13;4975721;28;20428;-89
2024/02/23 11:33:51;;;;;;;;;;;;;;;5.74;100.00;97664.44;4975583;28;20008;-90
2024/02/23 11:36:23;;;;;;;;;;;;;;;5.77;100.00;97660.78;4974080;28;19929;-88
2024/02/23 11:38:51;;;;;;;;;;;;;;;5.76;100.00;97654.69;4975373;28;19918;-88
2024/02/23 11:41:17;;;;;;;;;;;;;;;5.81;100.00;97649.19;4974722;28;20505;-91
2024/02/23 11:43:42;;;;;;;;;;;;;;;5.84;100.00;97656.88;4973947;28;19929;-88
2024/02/23 11:46:08;;;;;;;;;;;;;;;5.85;100.00;97647.22;4975239;28;19945;-88
2024/02/23 11:48:56;;;;;;;;;;;;;;;5.87;100.00;97640.06;4974872;28;20392;-91
2024/02/23 11:51:23;;;;;;;;;;;;;;;5.86;100.00;97641.88;4990099;28;19934;-89
2024/02/23 11:53:49;;;;;;;;;;;;;;;5.84;100.00;97630.59;4990107;28;20522;-88
2024/02/23 11:56:14;;;;;;;;;;;;;;;5.84;100.00;97635.88;4975196;28;20039;-86
2024/02/23 11:59:06;;;;;;;;;;;;;;;5.76;100.00;97638.06;4973616;28;20366;-90
2024/02/23 12:01:32;;;;;;;;;;;;;;;5.79;100.00;97643.16;4974571;28;19972;-88
2024/02/23 12:03:57;;;;;;;;;;;;;;;5.78;100.00;97641.47;4972940;28;20395;-90
2024/02/23 12:06:22;;;;;;;;;;;;;;;5.80;100.00;97636.97;4974883;28;19922;-88
2024/02/23 12:08:49;;;;;;;;;;;;;;;5.78;100.00;97642.31;4975084;28;19926;-89
2024/02/23 12:11:14;;;;;;;;;;;;;;;5.75;100.00;97631.97;4974859;28;19925;-89
2024/02/23 12:13:40;;;;;;;;;;;;;;;5.88;100.00;97624.22;4973401;28;19922;-87
2024/02/23 12:16:07;;;;;;;;;;;;;;;5.79;100.00;97628.25;4974643;28;20079;-87
2024/02/23 12:18:45;;;;;;;;;;;;;;;5.76;100.00;97631.03;4973715;28;20005;-88
2024/02/23 12:21:11;;;;;;;;;;;;;;;5.79;100.00;97622.13;4972835;28;19922;-86
2024/02/23 12:23:39;;;;;;;;;;;;;;;5.75;100.00;97620.63;4973103;28;20021;-87
2024/02/23 12:26:05;;;;;;;;;;;;;;;5.83;100.00;97623.66;4974458;28;19918;-88
2024/02/23 12:28:30;;;;;;;;;;;;;;;5.77;100.00;97618.75;4973152;28;19972;-86
2024/02/23 12:30:59;;;;;;;;;;;;;;;5.79;100.00;97619.50;4974613;28;19972;-88
2024/02/23 12:33:26;;;;;;;;;;;;;;;5.80;100.00;97610.69;4974330;28;19965;-91
2024/02/23 12:35:53;;;;;;;;;;;;;;;5.75;100.00;97610.94;4974269;28;19922;-87
2024/02/23 12:38:18;;;;;;;;;;;;;;;5.75;100.00;97605.69;4974226;28;19918;-87
2024/02/23 12:40:44;;;;;;;;;;;;;;;5.75;100.00;97615.38;4974069;28;19922;-85
2024/02/23 12:43:09;;;;;;;;;;;;;;;5.79;100.00;97604.59;4972971;28;19925;-87
2024/02/23 12:45:34;;;;;;;;;;;;;;;5.75;100.00;97616.19;4972641;28;19926;-91
2024/02/23 12:48:00;;;;;;;;;;;;;;;5.74;100.00;97611.88;4974056;28;19960;-85
2024/02/23 12:50:25;;;;;;;;;;;;;;;5.73;100.00;97606.72;4974042;28;19921;-87
2024/02/23 12:52:52;;;;;;;;;;;;;;;5.73;100.00;97593.59;4974033;28;19957;-88
2024/02/23 12:55:17;;;;;;;;;;;;;;;5.74;100.00;97593.47;4974126;28;19922;-87
2024/02/23 12:57:42;;;;;;;;;;;;;;;5.73;100.00;97593.59;4971343;28;20556;-90
2024/02/23 13:00:08;;;;;;;;;;;;;;;5.88;100.00;97592.69;4974013;28;19925;-87
2024/02/23 13:02:33;;;;;;;;;;;;;;;5.83;100.00;97592.94;4973837;28;19957;-85
2024/02/23 13:04:59;;;;;;;;;;;;;;;5.75;100.00;97584.66;4973650;28;19961;-88
2024/02/23 13:07:24;;;;;;;;;;;;;;;5.74;100.00;97579.50;4972484;28;19929;-88
2024/02/23 13:09:49;;;;;;;;;;;;;;;5.75;100.00;97581.22;4973715;28;19918;-86
2024/02/23 13:12:15;;;;;;;;;;;;;;;5.74;100.00;97582.13;4972277;28;19919;-88
2024/02/23 13:14:40;;;;;;;;;;;;;;;5.83;100.00;97581.59;4973805;28;19952;-83
2024/02/23 13:17:05;;;;;;;;;;;;;;;5.79;100.00;97577.44;4973621;28;19931;-85
2024/02/23 13:19:30;;;;;;;;;;;;;;;5.78;100.00;97578.41;4973629;28;19922;-88
2024/02/23 13:21:56;;;;;;;;;;;;;;;5.81;100.00;97572.97;4973619;28;19926;-86
2024/02/23 13:24:21;;;;;;;;;;;;;;;5.73;100.00;97581.28;4973647;28;19925;-87
2024/02/23 13:26:46;;;;;;;;;;;;;;;5.77;100.00;97581.94;4972005;28;19972;-87
2024/02/23 13:29:11;;;;;;;;;;;;;;;5.75;100.00;97594.34;4972515;28;19925;-87
2024/02/23 13:31:38;;;;;;;;;;;;;;;5.77;100.00;97595.09;4973075;28;19918;-89
2024/02/23 13:34:03;;;;;;;;;;;;;;;5.81;100.00;97601.88;4972652;28;19925;-90
2024/02/23 13:36:28;;;;;;;;;;;;;;;5.91;100.00;97605.66;4973461;28;20376;-86
2024/02/23 13:38:54;;;;;;;;;;;;;;;5.88;100.00;97611.09;4973376;28;20294;-87
2024/02/23 13:41:21;;;;;;;;;;;;;;;5.85;100.00;97611.25;4971386;28;21691;-88
2024/02/23 13:43:46;;;;;;;;;;;;;;;5.87;100.00;97598.03;4971818;28;19929;-89
2024/02/23 13:46:11;;;;;;;;;;;;;;;5.84;100.00;97601.69;4973166;28;20392;-89
2024/02/23 13:48:37;;;;;;;;;;;;;;;5.84;100.00;97593.81;4971834;28;19973;-87
2024/02/23 13:51:03;;;;;;;;;;;;;;;5.84;100.00;97596.44;4973052;28;19922;-89
2024/02/23 13:53:28;;;;;;;;;;;;;;;5.84;100.00;97599.06;4988193;28;20016;-89
2024/02/23 13:55:54;;;;;;;;;;;;;;;5.79;100.00;97601.09;4973011;28;19993;-88
2024/02/23 13:58:19;;;;;;;;;;;;;;;5.77;100.00;97601.19;4972038;28;19918;-88
2024/02/23 14:00:44;;;;;;;;;;;;;;;5.74;100.00;97603.16;4972908;28;19922;-88
2024/02/23 14:03:15;;;;;;;;;;;;;;;5.78;100.00;97607.31;4973070;28;19972;-87
2024/02/23 14:05:44;;;;;;;;;;;;;;;5.74;100.00;97618.91;4972868;28;19918;-90
2024/02/23 14:08:09;;;;;;;;;;;;;;;5.83;100.00;97616.59;4971895;28;20258;-91
2024/02/23 14:10:34;;;;;;;;;;;;;;;5.82;100.00;97608.81;4971734;28;20013;-89
2024/02/23 14:13:00;;;;;;;;;;;;;;;5.79;100.00;97612.47;4971710;28;20281;-88
2024/02/23 14:15:32;;;;;;;;;;;;;;;5.86;100.00;97617.38;4973110;28;19965;-92
2024/02/23 14:17:57;;;;;;;;;;;;;;;5.82;100.00;97598.28;4970944;28;19961;-89
2024/02/23 14:20:22;;;;;;;;;;;;;;;5.80;100.00;97598.38;4972879;28;20332;-88
2024/02/23 14:22:50;;;;;;;;;;;;;;;5.80;100.00;97597.53;4971758;28;19918;-88
2024/02/23 14:25:15;;;;;;;;;;;;;;;5.78;100.00;97599.44;4972821;28;19972;-89
2024/02/23 14:27:40;;;;;;;;;;;;;;;5.74;100.00;97592.63;4971732;28;19974;-88
2024/02/23 14:30:06;;;;;;;;;;;;;;;5.70;100.00;97594.59;4972941;28;19914;-85
2024/02/23 14:32:32;;;;;;;;;;;;;;;5.71;100.00;97593.69;4972918;28;19918;-89
2024/02/23 14:34:58;;;;;;;;;;;;;;;5.74;100.00;97590.00;4972071;28;19924;-87
2024/02/23 14:37:23;;;;;;;;;;;;;;;5.74;100.00;97580.34;4972871;28;19914;-86
2024/02/23 14:39:49;;;;;;;;;;;;;;;5.73;100.00;97567.31;4972664;28;20274;-88
2024/02/23 14:42:14;;;;;;;;;;;;;;;5.72;100.00;97573.50;4972320;28;20258;-88
2024/02/23 14:44:39;;;;;;;;;;;;;;;5.70;100.00;97564.88;4976402;28;19931;-91
2024/02/23 14:47:05;;;;;;;;;;;;;;;10.04;100.00;97550.84;4975145;28;20456;-90
2024/02/23 14:49:30;;;;;;;;;;;;;;;6.70;100.00;97549.19;4976362;28;19926;-86
2024/02/23 14:51:56;;;;;;;;;;;;;;;6.14;100.00;97564.03;4976137;28;20401;-86
2024/02/23 14:54:21;;;;;;;;;;;;;;;6.02;100.00;97572.66;4976151;28;19965;-88
2024/02/23 14:56:48;;;;;;;;;;;;;;;5.94;100.00;97573.94;4976128;28;19972;-89
2024/02/23 14:59:13;;;;;;;;;;;;;;;5.91;100.00;97560.97;4974964;28;19918;-90
2024/02/23 15:01:42;;;;;;;;;;;;;;;5.92;100.00;97567.06;4976136;28;19925;-87
2024/02/23 15:04:07;;;;;;;;;;;;;;;5.89;100.00;97570.72;4976305;28;20035;-87
2024/02/23 15:06:33;;;;;;;;;;;;;;;5.86;100.00;97570.91;4976129;28;20099;-88
2024/02/23 15:08:58;;;;;;;;;;;;;;;5.85;100.00;97573.63;4975784;28;19918;-87
2024/02/23 15:11:25;;;;;;;;;;;;;;;5.83;100.00;97568.47;4975943;28;19933;-86
2024/02/23 15:13:57;;;;;;;;;;;;;;;5.84;100.00;97564.91;4973352;28;19918;-89
2024/02/23 15:16:23;;;;;;;;;;;;;;;5.80;100.00;97558.13;4975244;28;20392;-89
2024/02/23 15:18:48;;;;;;;;;;;;;;;5.80;100.00;97553.69;4975616;28;19918;-90
2024/02/23 15:21:15;;;;;;;;;;;;;;;5.76;100.00;97553.97;4975659;28;20383;-90
2024/02/23 15:23:43;;;;;;;;;;;;;;;5.77;100.00;97553.03;4975389;28;19922;-89
2024/02/23 15:26:08;;;;;;;;;;;;;;;5.78;100.00;97550.31;4975555;28;20321;-88
2024/02/23 15:28:34;;;;;;;;;;;;;;;5.75;100.00;97550.50;4974734;28;20004;-91
2024/02/23 15:30:59;;;;;;;;;;;;;;;5.70;100.00;97554.34;4975529;28;19925;-90
2024/02/23 15:33:25;;;;;;;;;;;;;;;5.75;100.00;97552.31;4975449;28;20238;-89
2024/02/23 15:35:50;;;;;;;;;;;;;;;5.75;100.00;97553.13;4974083;28;19929;-88
2024/02/23 15:38:15;;;;;;;;;;;;;;;5.70;100.00;97559.63;4975384;28;20374;-90
2024/02/23 15:40:40;;;;;;;;;;;;;;;5.70;100.00;97552.56;4976471;28;20296;-93
2024/02/23 15:43:06;;;;;;;;;;;;;;;5.73;100.00;97554.19;4974667;28;20337;-92
2024/02/23 15:45:31;;;;;;;;;;;;;;;5.67;100.00;97549.28;4975178;28;19929;-88
2024/02/23 15:47:56;;;;;;;;;;;;;;;5.67;100.00;97554.53;4975100;28;20464;-89
2024/02/23 15:50:22;;;;;;;;;;;;;;;5.72;100.00;97549.84;4974289;28;19926;-90
2024/02/23 15:52:48;;;;;;;;;;;;;;;5.67;100.00;97541.41;4974879;28;20420;-90
2024/02/23 15:55:13;;;;;;;;;;;;;;;5.68;100.00;97540.44;4975256;28;19918;-89
2024/02/23 15:57:38;;;;;;;;;;;;;;;5.67;100.00;97541.41;4973820;28;19957;-90
2024/02/23 16:00:13;;;;;;;;;;;;;;;5.66;100.00;97552.84;4974878;28;19960;-90
2024/02/23 16:02:38;;;;;;;;;;;;;;;5.64;100.00;97556.38;4974731;28;19922;-90
2024/02/23 16:05:06;;;;;;;;;;;;;;;5.64;100.00;97545.88;4973831;28;19969;-91
2024/02/23 16:07:31;;;;;;;;;;;;;;;5.66;100.00;97543.16;4974626;28;19977;-88
2024/02/23 16:09:56;;;;;;;;;;;;;;;5.61;100.00;97543.41;4974854;28;19922;-86
2024/02/23 16:12:22;;;;;;;;;;;;;;;5.64;100.00;97535.38;4972243;28;19918;-85
2024/02/23 16:14:47;;;;;;;;;;;;;;;5.65;100.00;97546.75;4974835;28;20404;-89
2024/02/23 16:17:12;;;;;;;;;;;;;;;5.61;100.00;97546.06;4974823;28;19941;-89
2024/02/23 16:19:37;;;;;;;;;;;;;;;5.64;100.00;97545.88;4974679;28;19918;-85
2024/02/23 16:22:03;;;;;;;;;;;;;;;5.66;100.00;97544.94;4974487;28;20020;-87
2024/02/23 16:24:28;;;;;;;;;;;;;;;5.63;100.00;97544.19;4974449;28;20008;-86
2024/02/23 16:26:53;;;;;;;;;;;;;;;5.63;100.00;97548.59;4974550;28;19918;-90
2024/02/23 16:29:19;;;;;;;;;;;;;;;5.62;100.00;97546.91;4973244;28;19961;-84
2024/02/23 16:31:45;;;;;;;;;;;;;;;5.61;100.00;97537.34;4974315;28;19918;-85
2024/02/23 16:34:10;;;;;;;;;;;;;;;5.67;100.00;97549.28;4974360;28;19922;-83
2024/02/23 16:36:35;;;;;;;;;;;;;;;5.66;100.00;97552.84;4974200;28;19918;-88
2024/02/23 16:39:01;;;;;;;;;;;;;;;5.71;100.00;97548.16;4972901;28;19922;-88
2024/02/23 16:41:27;;;;;;;;;;;;;;;5.72;100.00;97552.47;4974402;28;19919;-88
2024/02/23 16:43:54;;;;;;;;;;;;;;;5.67;100.00;97549.28;4972718;28;20280;-88
2024/02/23 16:49:31;;;;;;;;;;;;;;;5.68;100.00;97554.44;4974241;28;19933;-88
2024/02/23 16:51:56;;;;;;;;;;;;;;;5.63;100.00;97552.09;4974190;28;19918;-88
2024/02/23 16:54:22;;;;;;;;;;;;;;;5.62;100.00;97547.75;4972861;28;19918;-90
2024/02/23 16:56:47;;;;;;;;;;;;;;;5.63;100.00;97544.19;4974169;28;20289;-90
2024/02/23 16:59:12;;;;;;;;;;;;;;;5.60;100.00;97541.75;4972502;28;20377;-84
2024/02/23 17:01:38;;;;;;;;;;;;;;;5.59;100.00;97541.84;4973651;28;19918;-88
2024/02/23 17:04:03;;;;;;;;;;;;;;;5.53;100.00;97537.78;4973740;28;19918;-86
2024/02/23 17:06:28;;;;;;;;;;;;;;;5.60;100.00;97539.13;4988285;28;19918;-88
2024/02/23 17:08:53;;;;;;;;;;;;;;;5.53;100.00;97544.81;4972670;28;19918;-88
2024/02/23 17:11:20;;;;;;;;;;;;;;;5.57;100.00;97544.56;4973974;28;19973;-83
2024/02/23 17:13:46;;;;;;;;;;;;;;;5.55;100.00;97549.06;4972439;28;20462;-86
2024/02/23 17:16:12;;;;;;;;;;;;;;;5.57;100.00;97551.59;4973561;28;19962;-84
2024/02/23 17:18:37;;;;;;;;;;;;;;;5.57;100.00;97555.06;4973787;28;19918;-84
2024/02/23 17:21:04;;;;;;;;;;;;;;;5.55;100.00;97554.31;4972082;28;19922;-87
2024/02/23 17:23:30;;;;;;;;;;;;;;;5.53;100.00;97553.53;4973427;28;19918;-88
2024/02/23 17:25:55;;;;;;;;;;;;;;;5.53;100.00;97556.16;4988379;28;19928;-87
2024/02/23 17:28:21;;;;;;;;;;;;;;;5.57;100.00;97565.56;4972321;28;19945;-86
2024/02/23 17:30:46;;;;;;;;;;;;;;;5.50;100.00;97566.00;4973318;28;19925;-89
2024/02/23 17:33:20;;;;;;;;;;;;;;;5.52;100.00;97562.38;4973555;28;19918;-88
2024/02/23 17:35:46;;;;;;;;;;;;;;;5.45;100.00;97561.84;4987925;28;19918;-90
2024/02/23 17:38:17;;;;;;;;;;;;;;;5.48;100.00;97560.84;4972511;28;19933;-90
2024/02/23 17:40:45;;;;;;;;;;;;;;;5.54;100.00;97578.88;4972416;28;20373;-90
2024/02/23 17:43:30;;;;;;;;;;;;;;;5.51;100.00;97568.53;4972138;28;20004;-90
2024/02/23 17:45:55;;;;;;;;;;;;;;;5.50;100.00;97579.97;4972692;28;19926;-92
2024/02/23 17:48:21;;;;;;;;;;;;;;;5.45;100.00;97571.53;4971899;28;20289;-89
2024/02/23 17:50:46;;;;;;;;;;;;;;;5.48;100.00;97575.75;4973509;28;19914;-89
2024/02/23 17:53:11;;;;;;;;;;;;;;;5.45;100.00;97568.91;4973221;28;19922;-87
2024/02/23 17:55:37;;;;;;;;;;;;;;;6.46;100.00;97571.75;4971933;28;19961;-89
2024/02/23 17:58:02;;;;;;;;;;;;;;;5.96;100.00;97569.44;4971762;28;19922;-88
2024/02/23 18:00:27;;;;;;;;;;;;;;;5.87;100.00;97563.84;4973030;28;19922;-90
2024/02/23 18:03:00;;;;;;;;;;;;;;;5.71;100.00;97564.78;4973131;28;19925;-88
2024/02/23 18:05:27;;;;;;;;;;;;;;;5.70;100.00;97567.50;4987609;28;19984;-90
2024/02/23 18:07:52;;;;;;;;;;;;;;;5.68;100.00;97569.34;4973257;28;19918;-85
2024/02/23 18:10:21;;;;;;;;;;;;;;;5.66;100.00;97558.91;4973108;28;20297;-87
2024/02/23 18:12:46;;;;;;;;;;;;;;;5.65;100.00;97567.75;4969362;28;19926;-85
2024/02/23 18:15:11;;;;;;;;;;;;;;;5.67;100.00;97565.03;4972758;28;19924;-85
2024/02/23 18:17:36;;;;;;;;;;;;;;;5.63;100.00;97570.47;4974063;28;19926;-84
2024/02/23 18:20:05;;;;;;;;;;;;;;;5.68;100.00;97570.22;4976624;28;19926;-86
2024/02/23 18:22:30;;;;;;;;;;;;;;;5.68;100.00;97571.97;4976717;28;19922;-88
2024/02/23 18:24:55;;;;;;;;;;;;;;;5.62;100.00;97568.78;4976236;28;19923;-85
2024/02/23 18:27:21;;;;;;;;;;;;;;;5.69;100.00;97571.03;4974131;28;19922;-89
2024/02/23 18:29:46;;;;;;;;;;;;;;;5.66;100.00;97572.06;4976817;28;19925;-83
2024/02/23 18:32:11;;;;;;;;;;;;;;;5.61;100.00;97574.94;4975062;28;19922;-87
2024/02/23 18:34:37;;;;;;;;;;;;;;;5.62;100.00;97574.03;4976860;28;20040;-90